• Join FlightAware (Why Join?)
  • Login
  • US Flag 
11:43AM EDT


 

Airport Tracker/Info


-or-


 

Live Flight TrackerFlight Track Log ✈ ASQ5299 ✈ 14-Jul-2013 ✈ KLGA - KMEM

Flight Track Log - Related Links

Times and Time Zones

All times are in EDT time to prevent confusion due to time zone crossing. See the ASQ5299 flight status page for this flight to view local times or setup timezone preferences in your user account.

Time Position Orientation Groundspeed Altitude Reporting Facility
EDT Latitude Longitude Course Direction KTS MPH feet Rate Location/Type
12:23PM 40.8333 -73.9167 330° Northwest 215 247 2,400  Level New York TRACON
12:24PM 40.9000 -73.9667 330° Northwest 251 289 5,000 2,520 Climbing New York TRACON
12:25PM 40.9667 -74.0167 330° Northwest 270 311 7,800 2,220 Climbing New York TRACON
12:27PM 40.9836 -74.1656 279° West 228 262 11,600 1,560 Climbing New York Center
12:28PM 40.9308 -74.2619 234° Southwest 269 310 12,300 720 Climbing New York Center
12:29PM 40.8856 -74.3858 244° Southwest 358 412 13,100 1,140 Climbing New York Center
12:30PM 40.8461 -74.5153 248° West 387 445 14,700 1,680 Climbing New York Center
12:31PM 40.8083 -74.6478 249° West 394 453 16,500 1,440 Climbing New York Center
12:32PM 40.7706 -74.7853 250° West 394 453 17,700 1,020 Climbing New York Center
12:33PM 40.7306 -74.9172 248° West 394 453 18,600 1,020 Climbing New York Center
12:34PM 40.6925 -75.0461 249° West 403 464 19,800 1,140 Climbing New York Center
12:35PM 40.6375 -75.1794 242° Southwest 409 471 20,900 900 Climbing New York Center
12:36PM 40.5783 -75.3150 240° Southwest 425 489 21,700 780 Climbing New York Center
12:37PM 40.5147 -75.4500 238° Southwest 435 501 22,500 660 Climbing New York Center
12:38PM 40.4486 -75.5903 238° Southwest 441 507 23,100 600 Climbing New York Center
12:39PM 40.3844 -75.7300 239° Southwest 446 513 23,700 600 Climbing New York Center
12:40PM 40.3153 -75.8831 239° Southwest 468 539 24,300 600 Climbing New York Center
12:41PM 40.2375 -76.0406 237° Southwest 473 544 25,000 540 Climbing New York Center
12:42PM 40.1803 -76.1583 238° Southwest 479 551 25,400 540 Climbing New York Center
12:43PM 40.1078 -76.3264 241° Southwest 484 557 26,100 600 Climbing New York Center
12:44PM 40.0383 -76.4703 238° Southwest 484 557 26,700 600 Climbing New York Center
12:45PM 39.9683 -76.6217 239° Southwest 484 557 27,300 540 Climbing New York Center
12:47PM 39.8250 -76.9208 238° Southwest 484 557 28,500 540 Climbing Washington Center
12:48PM 39.7567 -77.0681 239° Southwest 489 563 29,100 540 Climbing Washington Center
12:49PM 39.6861 -77.2203 239° Southwest 489 563 29,700 540 Climbing Washington Center
12:50PM 39.6172 -77.3694 239° Southwest 489 563 30,300 660 Climbing Washington Center
12:51PM 39.5461 -77.5158 238° Southwest 489 563 31,000 660 Climbing Washington Center
12:52PM 39.4772 -77.6644 239° Southwest 489 563 31,600 480 Climbing Washington Center
12:53PM 39.3947 -77.8339 238° Southwest 497 572 32,000 180 Climbing Washington Center
12:54PM 39.3464 -77.9747 246° West 486 559 32,000  Level Washington Center
12:55PM 39.3050 -78.1639 254° West 490 564 32,000  Level Washington Center
12:56PM 39.2617 -78.3311 252° West 495 570 32,000  Level Washington Center
12:57PM 39.2200 -78.5011 252° West 501 577 32,000  Level Washington Center
12:58PM 39.1783 -78.6708 252° West 501 577 32,000  Level Washington Center
12:59PM 39.1364 -78.8403 252° West 501 577 32,000  Level Washington Center
01:00PM 39.0922 -79.0069 251° West 496 571 32,000  Level Washington Center
01:01PM 39.0497 -79.1758 252° West 496 571 32,000  Level Washington Center
01:02PM 39.0069 -79.3447 252° West 496 571 32,000  Level Washington Center
01:03PM 38.9642 -79.5136 252° West 496 571 32,000  Level Washington Center
01:04PM 38.9256 -79.6717 253° West 502 578 32,000  Level Washington Center
01:05PM 38.8822 -79.8400 252° West 508 585 32,000  Level Washington Center
01:06PM 38.8492 -79.9489 249° West 495 570 32,000  Level Indianapolis Center
01:07PM 38.8033 -80.1147 251° West 494 568 32,000  Level Indianapolis Center
01:08PM 38.7597 -80.2797 251° West 491 565 32,000  Level Indianapolis Center
01:09PM 38.7069 -80.4786 251° West 490 564 32,000  Level Indianapolis Center
01:10PM 38.6608 -80.6458 251° West 497 572 32,000  Level Indianapolis Center
01:11PM 38.6167 -80.8131 251° West 496 571 32,000  Level Indianapolis Center
01:12PM 38.5706 -80.9789 250° West 494 568 32,000  Level Indianapolis Center
01:13PM 38.5244 -81.1458 251° West 495 570 32,000  Level Indianapolis Center
01:14PM 38.4764 -81.3144 250° West 497 572 32,000  Level Indianapolis Center
01:15PM 38.4300 -81.4839 251° West 498 573 32,000  Level Indianapolis Center
01:16PM 38.3822 -81.6600 251° West 494 568 32,000  Level Indianapolis Center
01:17PM 38.3364 -81.8164 250° West 492 566 32,000  Level Indianapolis Center
01:18PM 38.2811 -82.0144 250° West 496 571 32,000  Level Indianapolis Center
01:19PM 38.2350 -82.1781 250° West 492 566 32,000  Level Indianapolis Center
01:20PM 38.1881 -82.3447 250° West 498 573 32,000  Level Indianapolis Center
01:21PM 38.1422 -82.5078 250° West 494 568 32,000  Level Indianapolis Center
01:22PM 38.0956 -82.6700 250° West 491 565 32,000  Level Indianapolis Center
01:23PM 38.0478 -82.8344 250° West 496 571 32,000  Level Indianapolis Center
01:24PM 37.9933 -83.0269 250° West 497 572 32,000  Level Indianapolis Center
01:25PM 37.9453 -83.1872 249° West 492 566 32,000  Level Indianapolis Center
01:26PM 37.8972 -83.3489 249° West 491 565 32,000  Level Indianapolis Center
01:27PM 37.8500 -83.5114 250° West 492 566 32,000  Level Indianapolis Center
01:28PM 37.8019 -83.6719 249° West 490 564 32,000  Level Indianapolis Center
01:29PM 37.7444 -83.8589 249° West 491 565 32,000  Level Indianapolis Center
01:30PM 37.6978 -84.0194 250° West 489 563 32,000  Level Indianapolis Center
01:32PM 37.6481 -84.1786 249° West 488 562 32,000  Level Indianapolis Center
01:33PM 37.5986 -84.3392 249° West 490 564 32,000  Level Indianapolis Center
01:34PM 37.5497 -84.4992 249° West 489 563 32,000  Level Indianapolis Center
01:35PM 37.5006 -84.6583 249° West 489 563 32,000  Level Indianapolis Center
01:36PM 37.4422 -84.8433 248° West 486 559 32,000  Level Indianapolis Center
01:37PM 37.3928 -85.0028 249° West 491 565 32,000  Level Indianapolis Center
01:38PM 37.3433 -85.1622 249° West 490 564 32,000  Level Indianapolis Center
01:39PM 37.2917 -85.3194 248° West 488 562 32,000  Level Indianapolis Center
01:40PM 37.2442 -85.4764 249° West 483 556 32,000  Level Indianapolis Center
01:41PM 37.1917 -85.6369 248° West 493 567 32,000  Level Indianapolis Center
01:42PM 37.1397 -85.7953 248° West 489 563 32,000  Level Indianapolis Center
01:43PM 37.0806 -85.9822 248° West 490 564 32,000  Level Indianapolis Center
01:44PM 37.0281 -86.1408 248° West 491 565 32,000  Level Indianapolis Center
01:45PM 36.9750 -86.2997 247° West 490 564 32,000  Level Indianapolis Center
01:46PM 36.9219 -86.4592 247° West 493 567 32,000  Level Indianapolis Center
01:47PM 36.8467 -86.6339 242° Southwest 495 570 32,000  Level Memphis Center
01:48PM 36.7803 -86.7847 241° Southwest 501 577 32,000  Level Memphis Center
01:49PM 36.7158 -86.9350 242° Southwest 501 577 32,000  Level Memphis Center
01:50PM 36.6489 -87.0828 241° Southwest 501 577 32,000  Level Memphis Center
01:51PM 36.5819 -87.2303 241° Southwest 496 571 32,000  Level Memphis Center
01:52PM 36.5167 -87.3772 241° Southwest 490 564 32,000  Level Memphis Center
01:53PM 36.4514 -87.5242 241° Southwest 497 572 32,000  Level Memphis Center
01:54PM 36.3778 -87.6789 239° Southwest 492 566 32,000 -180 Level Memphis Center
01:55PM 36.3119 -87.8278 241° Southwest 492 566 31,700 -780 Descending Memphis Center
01:56PM 36.2439 -87.9714 240° Southwest 492 566 30,500 -1,260 Descending Memphis Center
01:57PM 36.1781 -88.1250 242° Southwest 492 566 29,200 -1,320 Descending Memphis Center
01:58PM 36.1094 -88.2606 238° Southwest 485 558 27,900 -1,320 Descending Memphis Center
01:59PM 36.0450 -88.3983 240° Southwest 479 551 26,600 -1,320 Descending Memphis Center
02:00PM 35.9886 -88.5203 240° Southwest 446 513 25,300 -1,320 Descending Memphis Center
02:01PM 35.9300 -88.6472 240° Southwest 429 494 24,000 -1,260 Descending Memphis Center
02:02PM 35.8711 -88.7686 239° Southwest 429 494 22,800 -1,740 Descending Memphis Center
02:03PM 35.8119 -88.8903 239° Southwest 424 488 20,600 -2,280 Descending Memphis Center
02:04PM 35.7572 -89.0064 240° Southwest 418 481 18,300 -2,220 Descending Memphis Center
02:05PM 35.6978 -89.1094 235° Southwest 396 456 16,200 -2,220 Descending Memphis Center
02:06PM 35.6339 -89.1972 228° Southwest 372 428 13,900 3,900 Descending Memphis Center
02:07PM 35.5658 -89.2850 226° Southwest 361 415 24,000 -1,920 Climbing Memphis Center
02:08PM 35.5061 -89.3778 232° Southwest 351 404 10,100 -7,500 Descending Memphis Center
02:09PM 35.4778 -89.4697 249° West 316 364 9,000 -1,500 Descending Memphis Center
02:10PM 35.4575 -89.5592 254° West 282 325 7,100 -1,800 Descending Memphis Center
02:11PM 35.4308 -89.6411 248° West 269 310 5,400 -1,560 Descending Memphis Center
02:12PM 35.3978 -89.7178 242° Southwest 264 304 4,000 -720 Descending Memphis Center
02:13PM 35.3689 -89.7842 242° Southwest 258 297 4,000  Level Memphis Center
02:14PM 35.3297 -89.8556 236° Southwest 258 297 4,000  Level Memphis Center
02:15PM 35.2903 -89.9297 237° Southwest 258 297 4,000 -600 Level Memphis Center
02:16PM 35.2319 -89.9733 211° Southwest 252 290 2,900 -960 Descending Memphis Center
02:17PM 35.1717 -89.9786 184° South 227 261 2,100 -600 Descending Memphis Center
02:18PM 35.1236 -89.9764 178° South 196 226 1,700 -600 Descending Memphis Center
02:19PM 35.0819 -89.9739 177° South 166 191 900 -600 Descending Memphis Center
02:20PM 35.0381 -89.9742 180° South 152 175 500 -420 Descending Memphis Center
02:22PM 35.0424 -89.9767 180° South  Level Estimated